Friday, January 19, 2018, 2:29 AM EST
Back to Local

KGNR, Greenville

Location: Greenville, ME, United States Lat: 45.467
Local Time: 2:29 AM EST ( 7:29 GMT) Lon: -69.583
Time Zone: US/Eastern Elev: 1400 ft

Show me the last for .
Show Decoded

2018-01-19 00:56 METAR KGNR 190556Z AUTO 32009KT M07/M08 A2974 RMK AO1 SLP094 T10671083 11067
                 21072 58013 =
2018-01-18 23:56 METAR KGNR 190456Z AUTO 32009KT M07/M08 A2975 RMK AO1 SLP099 T10671083 410441111
                 =
2018-01-18 22:56 METAR KGNR 190356Z AUTO 32007KT M07/M08 A2978 RMK AO1 SLP107 T10671083 =
2018-01-18 21:56 METAR KGNR 190256Z AUTO 34005KT M07/M09 A2978 RMK AO1 SLP109 T10671089 53010 =
2018-01-18 20:56 METAR KGNR 190156Z AUTO 31009KT M07/M09 A2976 RMK AO1 SLP102 T10671089 =
2018-01-18 19:56 METAR KGNR 190056Z AUTO 33012KT M07/M09 A2974 RMK AO1 SLP098 T10671089 =
2018-01-18 18:56 METAR KGNR 182356Z AUTO 33008KT M07/M09 A2975 RMK AO1 SLP101 T10671089 11044
                 21067 53006 =
2018-01-18 17:56 METAR KGNR 182256Z AUTO 33010KT M07/M09 A2974 RMK AO1 SLP100 T10671094 =
2018-01-18 16:56 METAR KGNR 182156Z AUTO 31008G16KT M07/M09 A2973 RMK AO1 SLP094 T10671094 =
2018-01-18 15:56 METAR KGNR 182056Z AUTO 30011G16KT M06/M09 A2973 RMK AO1 SLP093 T10611094 53000
                 =
2018-01-18 14:56 METAR KGNR 181956Z AUTO 31012G19KT M06/M10 A2972 RMK AO1 SLP089 T10561100 =
2018-01-18 08:56 METAR KGNR 181356Z AUTO VRB06KT M07/M12 A2978 RMK AO1 SLP111 T10721117 =
2018-01-18 07:56 METAR KGNR 181256Z AUTO 30009KT M10/M13 A2979 RMK AO1 SLP116 T11001128 =
2018-01-18 06:56 METAR KGNR 181156Z AUTO VRB04KT M11/M13 A2979 RMK AO1 SLP115 T11111128 11078
                 21111 56012 =
2018-01-18 05:56 METAR KGNR 181056Z AUTO 31008KT M11/M13 A2979 RMK AO1 SLP116 T11061128 =
2018-01-18 04:56 METAR KGNR 180956Z AUTO 33009KT M10/M12 A2980 RMK AO1 SLP117 T11001122 =
2018-01-18 03:56 METAR KGNR 180856Z AUTO 35008KT M09/M11 A2982 RMK AO1 SLP125 T10941111 58011 =
2018-01-18 02:56 METAR KGNR 180756Z AUTO 33005KT M08/M09 A2984 RMK AO1 SLP131 T10781089 =

Support USWX by starting your Amazon purchase here.